Weather at Gardner Airport [CLOSED]

Public forecast

Using degrees Fahrenheit for public forecast. Weather courtesy of forecast.io.

Closest aviation weather report (METAR) to Gardner Airport

Closest report is Allentown Queen City Municipal Airport, 7.3 nm (13.5 km) E. Retrieved 2021/06/13 16:35 UTC (20 minutes ago):

KXLL 131635Z AUTO 21004KT 10SM SCT022 BKN045 OVC050 22/17 A2993 RMK AO2

Closest aviation forecast (TAF) to Gardner Airport

Closest forecast is Lehigh Valley International Airport, 10.9 nm (20.1 km) ENE. Retrieved 2021/06/13 12:33 UTC (4 hours ago):

TAF KABE 131130Z 1312/1412 VRB03KT P6SM OVC035 TEMPO 1312/1313 -SHRA OVC025 FM131900 19004KT P6SM BKN040 FM140100 18004KT P6SM -SHRA OVC025 FM140700 15004KT 4SM -SHRA BR OVC015